createdAt,value
2019-02-15T05:01:25.529Z,18.60
2019-02-15T05:03:48.007Z,16.97
2019-02-15T05:06:10.480Z,17.33
2019-02-15T05:08:33.361Z,17.37
2019-02-15T05:10:55.799Z,15.63
2019-02-15T05:13:18.470Z,16.17
2019-02-15T06:00:49.258Z,16.83
2019-02-15T06:03:13.718Z,21.53
2019-02-15T06:05:36.011Z,19.70
2019-02-15T06:07:58.454Z,22.80
2019-02-15T06:10:21.854Z,19.47
2019-02-15T06:12:44.276Z,19.37
2019-02-15T07:01:28.187Z,21.50
2019-02-15T07:04:05.064Z,20.23
2019-02-15T07:06:27.591Z,19.23
2019-02-15T07:08:50.096Z,19.10
2019-02-15T07:11:12.609Z,19.17
2019-02-15T07:13:35.042Z,16.33
2019-02-15T08:01:39.194Z,12.53
2019-02-15T08:04:01.633Z,12.73
2019-02-15T08:06:24.051Z,11.23
2019-02-15T08:08:46.477Z,11.37
2019-02-15T08:11:08.926Z,8.63
2019-02-15T08:13:31.342Z,10.57
2019-02-15T09:00:59.712Z,8.08
2019-02-15T09:03:22.202Z,6.60
2019-02-15T09:05:44.689Z,6.62
2019-02-15T09:08:07.202Z,6.00
2019-02-15T09:10:29.638Z,7.85
2019-02-15T09:13:04.719Z,5.05
2019-02-15T09:41:27.943Z,2.25
2019-02-15T09:43:50.368Z,2.58
2019-02-15T09:46:19.498Z,3.87
2019-02-15T09:48:37.178Z,5.40
2019-02-15T09:50:59.584Z,5.58
2019-02-15T09:53:22.034Z,2.40
2019-02-15T09:55:44.443Z,2.20
2019-02-15T09:58:06.978Z,3.22
2019-02-15T10:00:29.410Z,2.22
2019-02-15T10:02:51.814Z,2.40
2019-02-15T10:05:27.243Z,1.90
2019-02-15T10:07:49.838Z,1.72
2019-02-15T10:10:12.262Z,2.65
2019-02-15T10:12:42.406Z,1.87
2019-02-15T11:01:07.303Z,1.67
2019-02-15T11:03:42.512Z,1.30
2019-02-15T11:06:17.783Z,1.80
2019-02-15T11:08:52.650Z,1.35
2019-02-15T11:11:15.098Z,2.87
2019-02-15T11:13:37.512Z,1.82
2019-02-15T12:01:41.423Z,3.10
2019-02-15T12:04:03.889Z,2.30
2019-02-15T12:06:26.310Z,3.90
2019-02-15T12:08:48.758Z,2.33
2019-02-15T12:11:11.948Z,2.00
2019-02-15T12:13:34.573Z,2.92
2019-02-15T12:15:57.014Z,3.58
2019-02-15T12:18:19.425Z,2.33
2019-02-15T12:20:41.855Z,2.37
2019-02-15T12:23:04.282Z,3.02
2019-02-15T12:25:26.698Z,2.65
2019-02-15T12:27:49.217Z,2.40
2019-02-15T12:30:11.774Z,2.40
2019-02-15T12:32:34.270Z,2.77
2019-02-15T12:34:56.731Z,3.40
2019-02-15T12:37:19.266Z,2.30
2019-02-15T12:39:41.975Z,2.65
2019-02-15T12:42:06.392Z,2.43
2019-02-15T12:44:28.927Z,2.27
2019-02-15T12:46:51.342Z,2.95
2019-02-15T12:49:13.758Z,4.83
2019-02-15T12:51:36.203Z,3.80
2019-02-15T12:53:58.722Z,2.65
2019-02-15T12:56:21.137Z,3.63
2019-02-15T12:58:43.587Z,3.37
2019-02-15T13:01:06.051Z,3.95
2019-02-15T13:03:28.455Z,2.83
2019-02-15T13:05:50.910Z,3.85
2019-02-15T13:08:13.321Z,3.13
2019-02-15T13:10:37.782Z,3.70
2019-02-15T13:13:00.216Z,3.33
2019-02-15T13:20:57.109Z,3.73
2019-02-15T13:23:19.524Z,2.63
2019-02-15T13:25:42.340Z,4.00
2019-02-15T13:28:05.325Z,3.00
2019-02-15T13:30:27.916Z,2.57
2019-02-15T13:32:50.442Z,2.17
2019-02-15T13:35:13.515Z,2.57
2019-02-15T13:37:37.278Z,3.63
2019-02-15T13:39:59.810Z,3.37
2019-02-15T13:42:22.255Z,2.63
2019-02-15T13:44:44.746Z,2.73
2019-02-15T13:47:07.186Z,2.73
2019-02-15T13:49:29.926Z,2.80
2019-02-15T13:51:52.975Z,3.50
2019-02-15T13:54:15.476Z,3.80
2019-02-15T13:56:38.038Z,2.97
2019-02-15T13:59:00.545Z,3.27
2019-02-15T14:01:22.960Z,2.90
2019-02-15T14:03:45.406Z,3.87
2019-02-15T14:06:07.842Z,4.03
2019-02-15T14:08:30.382Z,4.23
2019-02-15T14:10:52.812Z,4.63
2019-02-15T14:13:15.235Z,3.70
2019-02-15T15:02:08.910Z,5.70
2019-02-15T15:04:31.451Z,4.40
2019-02-15T15:06:53.973Z,4.77
2019-02-15T15:09:16.415Z,4.60
2019-02-15T15:11:38.826Z,4.83
2019-02-15T15:14:01.246Z,4.87
2019-02-15T16:00:15.863Z,5.93
2019-02-15T16:02:38.400Z,7.37
2019-02-15T16:05:00.806Z,6.73
2019-02-15T16:07:23.244Z,6.20
2019-02-15T16:09:45.664Z,8.47
2019-02-15T16:12:08.199Z,6.80
2019-02-15T16:14:30.691Z,7.30
2019-02-15T16:52:57.638Z,11.53
2019-02-15T16:55:21.274Z,13.27
2019-02-15T17:00:41.661Z,12.67
2019-02-15T17:03:04.223Z,13.23
2019-02-15T17:05:26.647Z,12.50
2019-02-15T17:07:49.078Z,13.07
2019-02-15T17:10:11.570Z,14.10
2019-02-15T17:12:34.090Z,15.07
2019-02-15T17:14:56.528Z,12.53
2019-02-15T18:00:13.162Z,15.33
2019-02-15T18:02:35.594Z,14.53
2019-02-15T18:04:58.030Z,14.10
2019-02-15T18:07:20.470Z,15.33
2019-02-15T18:09:42.994Z,12.30
2019-02-15T18:12:05.408Z,12.33
2019-02-15T18:14:27.931Z,12.00
2019-02-15T19:02:22.320Z,13.43
2019-02-15T19:04:44.834Z,14.67
2019-02-15T19:07:07.271Z,14.73
2019-02-15T19:09:29.703Z,16.40
2019-02-15T19:11:52.110Z,13.60
2019-02-15T19:14:14.533Z,15.47
2019-02-15T20:01:55.951Z,14.70
2019-02-15T20:04:31.079Z,17.33
2019-02-15T20:07:06.038Z,14.13
2019-02-15T20:09:41.013Z,16.07
2019-02-15T20:12:16.071Z,13.83
2019-02-15T20:14:51.338Z,13.87
2019-02-15T21:00:14.776Z,18.83
2019-02-15T21:02:37.530Z,15.60
2019-02-15T21:05:00.093Z,18.23
2019-02-15T21:07:22.711Z,16.53
2019-02-15T21:10:05.026Z,20.33
2019-02-15T21:12:40.494Z,19.03
